Airfield :
LOGIN :

Register | Disclaimer

   EN    FR    IT 

 










Legend :    VFR   Marginal VFR   IFR   Intensive IFR   Very Intensive IFR
Visi :
Ceiling :
>= 8 km
>= 3000ft
5 to 8 km
1000 to 3000 ft
1500m to 5 km
500 to 1000 ft
800 to 1500m
200 to 500 ft
< 800m
< 200 ft
Symbols :   Thunderstorms  Fog  Heavy snow  Heavy precipitations  Wind > 20 kt
SIGMETs :     Misc.  Thunderstorms  Icing  Turbulence  Mountain Waves  Volcanic Ashes







- Airport Elevation : 33 ft
- IATA code : MHZ


EGUN - RAF Mildenhall

CURRENT METAR :
  • 261946Z AUTO 32012KT 9999 SCT044 16/09 A2982 RMK AO2 SLP101 $

EXPIRED METARs :
  • 261856Z AUTO 32013G21KT 9999 BKN042 BKN060 17/10 A2981 RMK AO2 SLP098 T01710095 $
  • 261851Z AUTO 32016G22KT 9999 BKN042 BKN060 17/10 A2980 RMK AO2 SLP094 $
  • 261831Z AUTO 32016G20KT 9999 FEW033 SCT046 SCT060 17/13 A2980 RMK AO2 SLP094 $
  • 261756Z AUTO 30009KT 9999 OVC030 18/16 A2979 RMK AO2 SLP091 60001 T01810157 10201 20175 55004 $
  • 261754Z AUTO 30009KT 9999 OVC030 18/16 A2979 RMK AO2 SLP091 $
  • 261739Z AUTO 30013KT 9999 BKN028 BKN034 OVC080 19/17 A2979 RMK AO2 WSHFT 25 CIG 028V034 BKN028 V SCT SLP091 $
  • 261716Z AUTO 26013KT 9999 FEW026 SCT032 BKN080 20/17 A2978 RMK AO2 SLP087 $
  • 261721Z AUTO 27013KT 9999 SCT027 BKN033 BKN040 OVC080 20/17 A2978 RMK AO2 SLP087 $
  • 261706Z AUTO 27017KT 9999 BKN026 BKN080 20/17 A2978 RMK AO2 CIG 026V075 BKN026 V SCT SLP087 $
  • 261701Z AUTO 27016KT 9999 SCT026 BKN031 BKN075 20/17 A2978 RMK AO2 SLP087 $

TAF TAF EGUN
Valid from the 26 at 12:00 until the 27 at 18:00 UTC


261507Z 2612/2718 25012G20KT 8000 -SHRA BKN020 QNH2978INS
BECMG 2615/2616 27010G20KT 9999 NSW SCT020 QNH2977INS
BECMG 2619/2620 30012KT 9999 FEW030 QNH2979INS
BECMG 2707/2708 27010G20KT 9999 BKN030 QNH2976INS TX20/2612Z TN10/2701Z LAST NO AMDS AFT 2615 NEXT 2704
No reported NOTAMs for that airfield.
2 SIGMETs reported for the London FIR (EGTT) :
 
Severe mountain waves
EGTT SIGMET 02 VALID 261900/262300 EGRR
EGTT LONDON FIR SEV MTW FCST N OF LINE N5350 W00530 - N5306 E00322 FL030/150 STNR NC=
Severe mountain waves
EGTT SIGMET 01 VALID 261540/261900 EGRR
EGTT LONDON FIR SEV MTW FCST N OF LINE N5350 W00530 - N5306 E00322 FL030/150 STNR NC=



MET'MAP, your aeronautical weather chart ! - Copyright ORBIFLY December 2007 - Disclaimer

ORBIFLY MET'MAP TEAM :

Programming & Development : Alexandra Zaïnal
Concept & Development : Baudouin d'Aumeries
Co-Development & Prog : Marc-Olivier Méhu
Technical & hardware support : Manuel Goepfert

Contact : metmap@orbifly.com




SOURCES & CREDITS :

   NOAA